createdAt,value
2019-05-29T00:02:18.456Z,1.60
2019-05-29T00:05:21.577Z,1.00
2019-05-29T00:08:24.481Z,1.80
2019-05-29T00:11:27.415Z,2.00
2019-05-29T00:14:32.891Z,1.83
2019-05-29T00:17:36.169Z,1.53
2019-05-29T00:20:39.388Z,1.60
2019-05-29T00:23:42.887Z,1.53
2019-05-29T00:26:45.924Z,2.23
2019-05-29T00:29:49.292Z,1.90
2019-05-29T00:32:52.948Z,1.67
2019-05-29T00:35:56.224Z,1.40
2019-05-29T00:38:59.865Z,2.17
2019-05-29T00:42:03.012Z,1.50
2019-05-29T00:45:07.291Z,2.43
2019-05-29T00:48:11.648Z,1.70
2019-05-29T00:51:15.386Z,1.80
2019-05-29T00:54:18.556Z,2.20
2019-05-29T00:57:21.627Z,1.67
2019-05-29T01:00:24.885Z,1.93
2019-05-29T01:03:28.110Z,2.00
2019-05-29T01:06:31.038Z,1.30
2019-05-29T01:09:34.265Z,1.83
2019-05-29T01:12:37.210Z,1.70
2019-05-29T01:15:40.121Z,1.90
2019-05-29T01:18:43.068Z,1.73
2019-05-29T01:21:46.351Z,1.87
2019-05-29T01:24:49.675Z,1.97
2019-05-29T01:27:52.891Z,1.47
2019-05-29T01:30:56.210Z,1.83
2019-05-29T01:34:00.146Z,1.63
2019-05-29T01:37:03.306Z,1.90
2019-05-29T01:40:19.263Z,1.90
2019-05-29T01:43:11.419Z,1.83
2019-05-29T01:46:15.221Z,1.33
2019-05-29T01:49:19.614Z,1.70
2019-05-29T01:52:23.810Z,1.97
2019-05-29T01:55:27.900Z,1.63
2019-05-29T01:58:30.952Z,1.47
2019-05-29T02:01:34.159Z,2.67
2019-05-29T02:04:37.042Z,1.83
2019-05-29T02:07:39.975Z,2.10
2019-05-29T02:10:42.879Z,1.10
2019-05-29T02:13:45.836Z,2.43
2019-05-29T02:16:49.413Z,2.07
2019-05-29T02:19:53.289Z,1.50
2019-05-29T02:22:56.192Z,1.90
2019-05-29T02:25:59.109Z,2.27
2019-05-29T02:29:02.140Z,2.17
2019-05-29T02:32:05.331Z,2.90
2019-05-29T02:35:09.936Z,1.77
2019-05-29T02:38:12.923Z,1.83
2019-05-29T02:41:15.850Z,2.30
2019-05-29T02:44:19.273Z,2.30
2019-05-29T02:47:23.569Z,1.70
2019-05-29T02:50:29.326Z,1.87
2019-05-29T02:53:32.585Z,1.90
2019-05-29T02:56:36.159Z,1.90
2019-05-29T02:59:39.409Z,1.70
2019-05-29T03:02:42.336Z,1.80
2019-05-29T03:05:45.840Z,1.60
2019-05-29T03:08:50.807Z,1.80
2019-05-29T03:11:54.777Z,3.50
2019-05-29T03:14:58.310Z,1.60
2019-05-29T03:18:01.871Z,2.30
2019-05-29T03:21:05.118Z,2.13
2019-05-29T03:24:08.032Z,2.33
2019-05-29T03:27:10.959Z,1.93
2019-05-29T03:30:14.657Z,2.50
2019-05-29T03:33:17.856Z,1.70
2019-05-29T03:36:21.038Z,2.30
2019-05-29T03:39:23.943Z,1.73
2019-05-29T03:42:28.311Z,2.17
2019-05-29T03:45:34.069Z,1.97
2019-05-29T03:48:38.366Z,2.10
2019-05-29T03:51:42.029Z,2.73
2019-05-29T03:54:45.312Z,1.80
2019-05-29T03:57:48.222Z,1.77
2019-05-29T04:00:52.254Z,2.20
2019-05-29T04:03:55.575Z,2.40
2019-05-29T04:06:58.497Z,2.10
2019-05-29T04:10:01.770Z,2.10
2019-05-29T04:13:05.765Z,2.30
2019-05-29T04:16:10.862Z,2.90
2019-05-29T04:19:15.249Z,2.17
2019-05-29T04:22:24.624Z,1.80
2019-05-29T04:25:37.176Z,2.60
2019-05-29T04:28:39.046Z,2.17
2019-05-29T04:31:42.363Z,2.33
2019-05-29T04:34:45.277Z,2.20
2019-05-29T04:37:48.538Z,1.63
2019-05-29T04:40:51.497Z,1.57
2019-05-29T04:43:57.178Z,2.43
2019-05-29T04:47:10.499Z,2.67
2019-05-29T04:50:04.815Z,2.23
2019-05-29T04:53:07.751Z,2.80
2019-05-29T04:56:10.666Z,2.67
2019-05-29T04:59:14.025Z,2.40
2019-05-29T05:02:17.527Z,2.43
2019-05-29T05:05:20.790Z,2.57
2019-05-29T05:08:24.085Z,2.10
2019-05-29T05:11:27.643Z,2.00
2019-05-29T05:14:31.516Z,2.97
2019-05-29T05:17:36.012Z,2.50
2019-05-29T05:20:40.347Z,2.00
2019-05-29T05:23:43.556Z,2.40
2019-05-29T05:26:47.079Z,2.07
2019-05-29T05:29:50.647Z,2.23
2019-05-29T05:32:53.599Z,1.87
2019-05-29T05:35:56.922Z,2.10
2019-05-29T05:39:00.538Z,2.30
2019-05-29T05:42:03.474Z,3.17
2019-05-29T05:45:07.997Z,2.90
2019-05-29T05:48:10.946Z,3.23
2019-05-29T05:51:13.881Z,3.03
2019-05-29T05:54:17.190Z,2.30
2019-05-29T05:57:20.425Z,2.17
2019-05-29T06:00:34.000Z,3.17
2019-05-29T06:03:37.927Z,2.77
2019-05-29T06:06:42.290Z,2.50
2019-05-29T06:09:46.016Z,3.20
2019-05-29T06:12:49.687Z,2.40
2019-05-29T06:15:52.872Z,2.37
2019-05-29T06:18:56.180Z,3.03
2019-05-29T06:21:59.085Z,1.97
2019-05-29T06:25:02.947Z,2.27
2019-05-29T06:28:05.912Z,3.03
2019-05-29T06:31:08.894Z,2.63
2019-05-29T06:34:12.147Z,2.13
2019-05-29T06:37:15.077Z,2.97
2019-05-29T06:40:40.134Z,2.70
2019-05-29T06:43:44.308Z,2.73
2019-05-29T06:46:47.868Z,2.40
2019-05-29T06:49:51.084Z,2.73
2019-05-29T06:52:55.009Z,2.77
2019-05-29T06:55:59.446Z,2.20
2019-05-29T06:59:03.275Z,1.67
2019-05-29T07:02:06.277Z,1.60
2019-05-29T07:05:11.225Z,1.27
2019-05-29T07:08:20.844Z,1.20
2019-05-29T07:11:19.803Z,1.07
2019-05-29T07:14:22.732Z,1.30
2019-05-29T07:17:26.809Z,1.60
2019-05-29T07:20:30.138Z,2.03
2019-05-29T07:23:33.651Z,1.07
2019-05-29T07:26:36.990Z,1.10
2019-05-29T07:29:41.190Z,1.30
2019-05-29T07:32:50.966Z,1.00
2019-05-29T07:35:49.050Z,1.63
2019-05-29T07:39:02.473Z,1.10
2019-05-29T07:41:56.819Z,1.43
2019-05-29T07:45:00.105Z,1.00
2019-05-29T07:48:03.539Z,1.30
2019-05-29T07:51:07.617Z,0.90
2019-05-29T07:54:10.904Z,1.07
2019-05-29T07:57:13.954Z,1.60
2019-05-29T08:00:18.246Z,0.90
2019-05-29T08:03:22.034Z,1.50
2019-05-29T08:06:25.400Z,0.80
2019-05-29T08:09:28.314Z,1.03
2019-05-29T08:12:31.901Z,1.00
2019-05-29T08:15:51.204Z,0.97
2019-05-29T08:18:41.676Z,1.40
2019-05-29T08:21:46.499Z,0.80
2019-05-29T08:24:51.063Z,1.53
2019-05-29T08:27:54.165Z,0.83
2019-05-29T08:30:57.104Z,1.27
2019-05-29T08:34:00.734Z,0.80
2019-05-29T08:37:07.057Z,1.23
2019-05-29T08:40:09.029Z,0.97
2019-05-29T08:43:11.956Z,1.30
2019-05-29T08:46:14.868Z,1.43
2019-05-29T08:49:17.823Z,1.13
2019-05-29T08:52:20.996Z,1.07
2019-05-29T08:55:23.928Z,0.97
2019-05-29T08:58:27.795Z,0.70
2019-05-29T09:01:30.726Z,0.87
2019-05-29T09:04:33.651Z,0.77
2019-05-29T09:07:36.599Z,0.80
2019-05-29T09:10:39.868Z,2.60
2019-05-29T09:13:42.899Z,0.80
2019-05-29T09:16:46.309Z,1.00
2019-05-29T09:19:56.633Z,1.20
2019-05-29T09:23:00.727Z,0.67
2019-05-29T09:26:14.099Z,0.90
2019-05-29T09:29:09.323Z,1.00
2019-05-29T09:32:13.484Z,1.00
2019-05-29T09:35:19.668Z,0.97
2019-05-29T09:38:23.390Z,0.80
2019-05-29T09:41:26.334Z,0.93
2019-05-29T09:44:38.362Z,1.20
2019-05-29T09:47:35.065Z,0.90
2019-05-29T09:50:49.979Z,1.40
2019-05-29T09:53:43.520Z,1.37
2019-05-29T09:56:46.853Z,1.07
2019-05-29T09:59:50.833Z,1.27
2019-05-29T10:02:54.439Z,1.20
2019-05-29T10:05:59.474Z,1.20
2019-05-29T10:09:05.757Z,1.00
2019-05-29T10:12:08.787Z,1.00
2019-05-29T10:15:12.208Z,0.93
2019-05-29T10:18:31.404Z,1.10
2019-05-29T10:21:19.951Z,0.90
2019-05-29T10:24:23.618Z,0.80
2019-05-29T10:27:26.849Z,1.60
2019-05-29T10:30:30.319Z,1.23
2019-05-29T10:33:33.234Z,1.00
2019-05-29T10:36:36.528Z,1.00
2019-05-29T10:39:39.782Z,1.00
2019-05-29T10:42:43.121Z,1.10
2019-05-29T10:45:47.952Z,1.13
2019-05-29T10:48:54.241Z,1.17
2019-05-29T10:52:11.896Z,1.00
2019-05-29T10:55:00.967Z,1.10
2019-05-29T10:58:03.961Z,1.10
2019-05-29T11:01:06.936Z,1.17
2019-05-29T11:04:09.875Z,1.20
2019-05-29T11:07:13.213Z,1.10
2019-05-29T11:10:17.348Z,0.90
2019-05-29T11:13:20.264Z,0.97
2019-05-29T11:16:23.543Z,0.93
2019-05-29T11:19:26.757Z,1.07
2019-05-29T11:22:30.311Z,1.73
2019-05-29T11:25:33.320Z,0.97
2019-05-29T11:28:36.255Z,1.07
2019-05-29T11:31:39.510Z,1.30
2019-05-29T11:34:43.036Z,0.80
2019-05-29T11:37:46.672Z,1.10
2019-05-29T11:41:04.571Z,1.07
2019-05-29T11:43:55.219Z,1.00
2019-05-29T11:46:58.531Z,0.97
2019-05-29T11:50:16.396Z,1.03
2019-05-29T11:53:07.417Z,1.00
2019-05-29T11:56:10.742Z,1.00
2019-05-29T11:59:13.709Z,1.23
2019-05-29T12:02:17.211Z,1.43
2019-05-29T12:05:20.781Z,1.27
2019-05-29T12:08:23.728Z,1.53
2019-05-29T12:11:26.653Z,0.80
2019-05-29T12:14:29.608Z,1.20
2019-05-29T12:17:34.150Z,0.80
2019-05-29T12:20:37.298Z,1.37
2019-05-29T12:23:40.449Z,1.20
2019-05-29T12:26:43.673Z,0.70
2019-05-29T12:29:46.866Z,0.90
2019-05-29T12:32:49.816Z,0.83
2019-05-29T12:35:53.144Z,0.83
2019-05-29T12:38:57.795Z,0.90
2019-05-29T12:42:01.777Z,1.10
2019-05-29T12:45:07.335Z,1.30
2019-05-29T12:48:13.373Z,1.20
2019-05-29T12:51:15.745Z,0.90
2019-05-29T12:54:18.948Z,1.17
2019-05-29T12:57:23.572Z,1.00
2019-05-29T13:00:27.799Z,1.20
2019-05-29T13:03:30.729Z,0.80
2019-05-29T13:06:33.700Z,1.20
2019-05-29T13:09:36.729Z,0.90
2019-05-29T13:12:40.018Z,1.00
2019-05-29T13:15:42.960Z,0.93
2019-05-29T13:18:45.869Z,1.00
2019-05-29T13:21:49.135Z,1.00
2019-05-29T13:24:52.775Z,0.93
2019-05-29T13:27:57.949Z,0.80
2019-05-29T13:31:01.907Z,1.00
2019-05-29T13:34:06.995Z,3.73
2019-05-29T13:37:10.027Z,1.00
2019-05-29T13:40:13.185Z,1.10
2019-05-29T13:43:16.285Z,0.87
2019-05-29T13:46:19.234Z,1.20
2019-05-29T13:49:22.472Z,0.80
2019-05-29T13:52:25.762Z,1.00
2019-05-29T13:55:28.719Z,0.90
2019-05-29T13:58:32.681Z,0.80
2019-05-29T14:01:35.599Z,0.80
2019-05-29T14:04:39.411Z,0.93
2019-05-29T14:07:42.414Z,1.13
2019-05-29T14:10:45.435Z,0.70
2019-05-29T14:13:48.446Z,0.90
2019-05-29T14:16:51.367Z,1.13
2019-05-29T14:19:54.904Z,2.70
2019-05-29T14:22:58.182Z,0.97
2019-05-29T14:26:02.353Z,0.80
2019-05-29T14:29:06.006Z,0.80
2019-05-29T14:32:09.436Z,0.80
2019-05-29T14:35:13.581Z,0.60
2019-05-29T14:38:16.998Z,2.00
2019-05-29T14:41:20.266Z,0.80
2019-05-29T14:44:23.494Z,0.80
2019-05-29T14:47:26.502Z,1.00
2019-05-29T14:50:29.722Z,0.70
2019-05-29T14:53:34.107Z,0.73
2019-05-29T14:56:37.778Z,1.20
2019-05-29T14:59:41.224Z,1.77
2019-05-29T15:02:44.806Z,0.80
2019-05-29T15:05:47.771Z,0.77
2019-05-29T15:08:51.042Z,0.90
2019-05-29T15:11:53.943Z,1.07
2019-05-29T15:14:56.877Z,0.80
2019-05-29T15:17:59.865Z,1.00
2019-05-29T15:21:03.096Z,0.80
2019-05-29T15:24:07.298Z,0.80
2019-05-29T15:27:10.341Z,1.33
2019-05-29T15:30:22.023Z,0.80
2019-05-29T15:33:19.818Z,0.70
2019-05-29T15:36:22.774Z,0.80
2019-05-29T15:39:26.045Z,1.00
2019-05-29T15:42:29.075Z,0.90
2019-05-29T15:45:32.400Z,0.70
2019-05-29T15:48:35.313Z,0.70
2019-05-29T15:51:38.501Z,0.73
2019-05-29T15:54:41.425Z,0.70
2019-05-29T15:57:44.342Z,0.70
2019-05-29T16:00:47.740Z,0.70
2019-05-29T16:03:50.703Z,0.90
2019-05-29T16:06:55.206Z,0.83
2019-05-29T16:09:59.207Z,0.83
2019-05-29T16:13:02.177Z,0.70
2019-05-29T16:16:05.497Z,0.87
2019-05-29T16:19:09.963Z,0.60
2019-05-29T16:22:14.372Z,0.80
2019-05-29T16:25:17.366Z,0.70
2019-05-29T16:28:21.488Z,0.70
2019-05-29T16:31:24.652Z,0.60
2019-05-29T16:34:27.570Z,0.80
2019-05-29T16:37:31.887Z,0.60
2019-05-29T16:40:34.800Z,0.60
2019-05-29T16:43:38.005Z,0.60
2019-05-29T16:46:40.913Z,0.60
2019-05-29T16:49:43.883Z,0.70
2019-05-29T16:52:47.071Z,0.90
2019-05-29T16:55:53.654Z,1.03
2019-05-29T16:58:54.812Z,1.07
2019-05-29T17:01:57.987Z,1.00
2019-05-29T17:05:01.308Z,0.80
2019-05-29T17:08:04.411Z,0.90
2019-05-29T17:11:07.534Z,0.77
2019-05-29T17:14:10.724Z,0.80
2019-05-29T17:17:15.230Z,0.80
2019-05-29T17:20:37.218Z,1.30
2019-05-29T17:23:40.609Z,0.80
2019-05-29T17:26:43.867Z,0.77
2019-05-29T17:29:47.071Z,0.70
2019-05-29T17:32:49.997Z,0.70
2019-05-29T17:35:53.017Z,0.60
2019-05-29T17:38:56.175Z,0.70
2019-05-29T17:42:00.294Z,0.70
2019-05-29T17:45:04.398Z,0.77
2019-05-29T17:48:07.773Z,0.70
2019-05-29T17:51:11.480Z,0.97
2019-05-29T17:54:15.801Z,0.70
2019-05-29T17:57:20.237Z,0.60
2019-05-29T18:00:26.570Z,0.77
2019-05-29T18:03:29.796Z,0.70
2019-05-29T18:06:32.820Z,0.70
2019-05-29T18:09:36.888Z,0.80
2019-05-29T18:12:39.784Z,1.07
2019-05-29T18:15:43.097Z,1.00
2019-05-29T18:18:47.045Z,0.80
2019-05-29T18:21:50.286Z,0.87
2019-05-29T18:24:53.548Z,0.90
2019-05-29T18:27:56.722Z,0.90
2019-05-29T18:31:00.041Z,0.67
2019-05-29T18:34:03.157Z,0.60
2019-05-29T18:37:06.424Z,0.67
2019-05-29T18:40:12.846Z,0.80
2019-05-29T18:43:16.021Z,0.60
2019-05-29T18:46:18.984Z,1.13
2019-05-29T18:49:22.283Z,1.00
2019-05-29T18:52:25.638Z,0.80
2019-05-29T18:55:29.127Z,1.10
2019-05-29T18:58:32.361Z,0.70
2019-05-29T19:01:36.853Z,0.83
2019-05-29T19:04:39.748Z,0.60
2019-05-29T19:07:42.699Z,0.53
2019-05-29T19:10:46.953Z,1.00
2019-05-29T19:13:50.274Z,1.00
2019-05-29T19:16:53.352Z,3.07
2019-05-29T19:19:56.600Z,0.80
2019-05-29T19:22:59.838Z,0.90
2019-05-29T19:26:03.504Z,0.90
2019-05-29T19:29:06.807Z,0.77
2019-05-29T19:32:10.108Z,1.00
2019-05-29T19:35:13.519Z,0.93
2019-05-29T19:38:16.754Z,0.80
2019-05-29T19:41:20.037Z,1.20
2019-05-29T19:44:24.142Z,0.80
2019-05-29T19:47:27.138Z,0.70
2019-05-29T19:50:30.915Z,1.00
2019-05-29T19:53:35.547Z,1.20
2019-05-29T19:56:39.142Z,0.87
2019-05-29T19:59:42.444Z,2.00
2019-05-29T20:02:45.692Z,1.37
2019-05-29T20:05:49.061Z,3.60
2019-05-29T20:08:52.312Z,1.20
2019-05-29T20:11:55.834Z,1.10
2019-05-29T20:14:59.128Z,0.90
2019-05-29T20:18:02.125Z,0.77
2019-05-29T20:21:05.044Z,0.90
2019-05-29T20:24:07.992Z,0.73
2019-05-29T20:27:10.963Z,0.97
2019-05-29T20:30:18.603Z,0.80
2019-05-29T20:33:21.849Z,0.80
2019-05-29T20:36:24.784Z,0.90
2019-05-29T20:39:28.115Z,0.90
2019-05-29T20:42:32.129Z,1.47
2019-05-29T20:45:35.610Z,1.00
2019-05-29T20:48:38.784Z,0.97
2019-05-29T20:51:42.332Z,1.00
2019-05-29T20:54:45.760Z,0.70
2019-05-29T20:57:48.682Z,0.90
2019-05-29T21:00:51.945Z,0.80
2019-05-29T21:03:55.338Z,0.90
2019-05-29T21:06:59.127Z,1.10
2019-05-29T21:10:02.098Z,0.80
2019-05-29T21:13:05.219Z,0.80
2019-05-29T21:16:08.148Z,1.33
2019-05-29T21:19:12.073Z,1.93
2019-05-29T21:22:15.500Z,2.07
2019-05-29T21:25:19.362Z,2.30
2019-05-29T21:28:22.802Z,2.57
2019-05-29T21:31:26.376Z,2.40
2019-05-29T21:34:29.960Z,2.80
2019-05-29T21:37:32.893Z,2.93
2019-05-29T21:40:36.335Z,2.50
2019-05-29T21:43:40.629Z,2.17
2019-05-29T21:46:45.036Z,1.47
2019-05-29T21:49:48.267Z,1.10
2019-05-29T21:52:52.750Z,1.60
2019-05-29T21:55:56.048Z,1.80
2019-05-29T21:59:03.886Z,1.17
2019-05-29T22:02:05.163Z,1.10
2019-05-29T22:05:08.583Z,1.43
2019-05-29T22:08:11.612Z,1.03
2019-05-29T22:11:14.622Z,1.13
2019-05-29T22:14:18.351Z,1.17
2019-05-29T22:17:21.898Z,1.17
2019-05-29T22:20:24.840Z,1.37
2019-05-29T22:23:28.380Z,0.90
2019-05-29T22:26:31.494Z,1.30
2019-05-29T22:29:34.609Z,1.10
2019-05-29T22:32:37.682Z,1.00
2019-05-29T22:35:40.739Z,1.17
2019-05-29T22:38:43.957Z,1.30
2019-05-29T22:41:47.312Z,1.50
2019-05-29T22:44:51.617Z,1.13
2019-05-29T22:47:55.746Z,1.13
2019-05-29T22:50:59.943Z,1.50
2019-05-29T22:54:03.060Z,1.30
2019-05-29T22:57:06.028Z,1.50
2019-05-29T23:00:11.207Z,1.37
2019-05-29T23:03:14.676Z,1.30
2019-05-29T23:06:17.888Z,1.17
2019-05-29T23:09:20.815Z,1.40
2019-05-29T23:12:23.720Z,1.30
2019-05-29T23:15:26.650Z,1.60
2019-05-29T23:18:30.168Z,1.27
2019-05-29T23:21:33.136Z,1.83
2019-05-29T23:24:36.341Z,1.30
2019-05-29T23:27:39.566Z,1.60
2019-05-29T23:30:42.935Z,1.43
2019-05-29T23:33:46.144Z,1.27
2019-05-29T23:36:50.006Z,1.20
2019-05-29T23:39:53.366Z,1.90
2019-05-29T23:42:57.338Z,1.13
2019-05-29T23:46:02.423Z,2.30
2019-05-29T23:49:06.596Z,1.30
2019-05-29T23:52:09.891Z,1.63
2019-05-29T23:55:13.166Z,1.30
2019-05-29T23:58:16.744Z,1.70
